sensor_id;sensor_type;location;lat;lon;timestamp;P1;durP1;ratioP1;P2;durP2;ratioP2
70132;SDS011;57495;49.922;7.966;2023-02-10T00:01:10;30.85;;;13.63;;
70132;SDS011;57495;49.922;7.966;2023-02-10T00:03:12;26.20;;;13.07;;
70132;SDS011;57495;49.922;7.966;2023-02-10T00:05:14;30.77;;;14.77;;
70132;SDS011;57495;49.922;7.966;2023-02-10T00:07:15;29.20;;;14.60;;
70132;SDS011;57495;49.922;7.966;2023-02-10T00:09:16;26.75;;;13.45;;
70132;SDS011;57495;49.922;7.966;2023-02-10T00:11:18;24.35;;;10.65;;
70132;SDS011;57495;49.922;7.966;2023-02-10T00:13:19;27.67;;;12.00;;
70132;SDS011;57495;49.922;7.966;2023-02-10T00:15:22;28.83;;;14.75;;
70132;SDS011;57495;49.922;7.966;2023-02-10T00:17:24;32.92;;;14.63;;
70132;SDS011;57495;49.922;7.966;2023-02-10T00:19:26;29.00;;;14.13;;
70132;SDS011;57495;49.922;7.966;2023-02-10T00:21:29;28.23;;;13.55;;
70132;SDS011;57495;49.922;7.966;2023-02-10T00:23:30;29.90;;;14.00;;
70132;SDS011;57495;49.922;7.966;2023-02-10T00:25:31;30.85;;;13.82;;
70132;SDS011;57495;49.922;7.966;2023-02-10T00:27:33;27.92;;;14.35;;
70132;SDS011;57495;49.922;7.966;2023-02-10T00:29:34;33.47;;;14.52;;
70132;SDS011;57495;49.922;7.966;2023-02-10T00:31:37;25.83;;;12.20;;
70132;SDS011;57495;49.922;7.966;2023-02-10T00:33:38;31.33;;;14.15;;
70132;SDS011;57495;49.922;7.966;2023-02-10T00:35:40;26.40;;;12.55;;
70132;SDS011;57495;49.922;7.966;2023-02-10T00:37:42;26.88;;;13.32;;
70132;SDS011;57495;49.922;7.966;2023-02-10T00:39:43;28.33;;;13.82;;
70132;SDS011;57495;49.922;7.966;2023-02-10T00:41:45;28.50;;;12.70;;
70132;SDS011;57495;49.922;7.966;2023-02-10T00:43:47;28.52;;;13.68;;
70132;SDS011;57495;49.922;7.966;2023-02-10T00:45:48;28.48;;;14.07;;
70132;SDS011;57495;49.922;7.966;2023-02-10T00:47:51;29.13;;;13.52;;
70132;SDS011;57495;49.922;7.966;2023-02-10T00:49:53;25.80;;;13.05;;
70132;SDS011;57495;49.922;7.966;2023-02-10T00:51:54;32.67;;;13.95;;
70132;SDS011;57495;49.922;7.966;2023-02-10T00:53:57;26.15;;;12.07;;
70132;SDS011;57495;49.922;7.966;2023-02-10T00:55:58;27.38;;;13.02;;
70132;SDS011;57495;49.922;7.966;2023-02-10T00:58:00;28.25;;;13.18;;
70132;SDS011;57495;49.922;7.966;2023-02-10T01:00:02;30.80;;;13.73;;
70132;SDS011;57495;49.922;7.966;2023-02-10T01:02:03;27.60;;;13.85;;
70132;SDS011;57495;49.922;7.966;2023-02-10T01:04:06;28.75;;;13.57;;
70132;SDS011;57495;49.922;7.966;2023-02-10T01:06:09;31.42;;;13.43;;
70132;SDS011;57495;49.922;7.966;2023-02-10T01:08:11;28.77;;;13.55;;
70132;SDS011;57495;49.922;7.966;2023-02-10T01:10:12;30.20;;;13.48;;
70132;SDS011;57495;49.922;7.966;2023-02-10T01:12:14;27.95;;;12.98;;
70132;SDS011;57495;49.922;7.966;2023-02-10T01:14:15;28.98;;;13.63;;
70132;SDS011;57495;49.922;7.966;2023-02-10T01:16:17;28.25;;;13.85;;
70132;SDS011;57495;49.922;7.966;2023-02-10T01:18:18;26.63;;;13.07;;
70132;SDS011;57495;49.922;7.966;2023-02-10T01:20:21;28.58;;;14.23;;
70132;SDS011;57495;49.922;7.966;2023-02-10T01:22:23;28.88;;;13.63;;
70132;SDS011;57495;49.922;7.966;2023-02-10T01:24:24;31.05;;;12.75;;
70132;SDS011;57495;49.922;7.966;2023-02-10T01:26:26;26.17;;;13.00;;
70132;SDS011;57495;49.922;7.966;2023-02-10T01:28:27;26.17;;;13.65;;
70132;SDS011;57495;49.922;7.966;2023-02-10T01:30:29;27.60;;;12.90;;
70132;SDS011;57495;49.922;7.966;2023-02-10T01:32:30;26.88;;;13.82;;
70132;SDS011;57495;49.922;7.966;2023-02-10T01:34:32;29.30;;;13.95;;
70132;SDS011;57495;49.922;7.966;2023-02-10T01:36:34;28.92;;;13.48;;
70132;SDS011;57495;49.922;7.966;2023-02-10T01:38:36;27.73;;;12.20;;
70132;SDS011;57495;49.922;7.966;2023-02-10T01:40:38;28.92;;;12.18;;
70132;SDS011;57495;49.922;7.966;2023-02-10T01:42:39;27.15;;;12.60;;
70132;SDS011;57495;49.922;7.966;2023-02-10T01:47:13;29.88;;;12.80;;
70132;SDS011;57495;49.922;7.966;2023-02-10T01:49:16;25.23;;;12.35;;
70132;SDS011;57495;49.922;7.966;2023-02-10T01:51:21;30.05;;;13.75;;
70132;SDS011;57495;49.922;7.966;2023-02-10T01:53:28;34.30;;;13.93;;
70132;SDS011;57495;49.922;7.966;2023-02-10T01:55:30;27.58;;;12.50;;
70132;SDS011;57495;49.922;7.966;2023-02-10T01:57:34;28.05;;;12.05;;
70132;SDS011;57495;49.922;7.966;2023-02-10T01:59:38;27.63;;;13.73;;
70132;SDS011;57495;49.922;7.966;2023-02-10T02:01:42;24.85;;;11.70;;
70132;SDS011;57495;49.922;7.966;2023-02-10T02:03:44;28.38;;;13.63;;
70132;SDS011;57495;49.922;7.966;2023-02-10T02:05:45;26.98;;;12.30;;
70132;SDS011;57495;49.922;7.966;2023-02-10T02:07:47;24.67;;;12.25;;
70132;SDS011;57495;49.922;7.966;2023-02-10T02:09:50;29.75;;;14.00;;
70132;SDS011;57495;49.922;7.966;2023-02-10T02:11:54;23.80;;;11.68;;
70132;SDS011;57495;49.922;7.966;2023-02-10T02:14:08;28.05;;;13.57;;
70132;SDS011;57495;49.922;7.966;2023-02-10T02:16:21;27.92;;;12.25;;
70132;SDS011;57495;49.922;7.966;2023-02-10T02:18:32;27.15;;;12.13;;
70132;SDS011;57495;49.922;7.966;2023-02-10T02:21:03;29.83;;;13.18;;
70132;SDS011;57495;49.922;7.966;2023-02-10T02:23:24;25.42;;;12.48;;
70132;SDS011;57495;49.922;7.966;2023-02-10T02:25:58;27.20;;;12.18;;
70132;SDS011;57495;49.922;7.966;2023-02-10T02:28:25;27.33;;;13.40;;
70132;SDS011;57495;49.922;7.966;2023-02-10T02:30:43;31.02;;;14.27;;
70132;SDS011;57495;49.922;7.966;2023-02-10T02:32:52;26.10;;;12.48;;
70132;SDS011;57495;49.922;7.966;2023-02-10T02:34:58;27.77;;;12.63;;
70132;SDS011;57495;49.922;7.966;2023-02-10T02:37:07;24.52;;;12.13;;
70132;SDS011;57495;49.922;7.966;2023-02-10T02:39:13;26.83;;;12.60;;
70132;SDS011;57495;49.922;7.966;2023-02-10T02:41:21;24.42;;;12.70;;
70132;SDS011;57495;49.922;7.966;2023-02-10T02:43:23;29.48;;;13.10;;
70132;SDS011;57495;49.922;7.966;2023-02-10T02:45:26;30.40;;;12.30;;
70132;SDS011;57495;49.922;7.966;2023-02-10T02:47:37;26.20;;;12.45;;
70132;SDS011;57495;49.922;7.966;2023-02-10T02:49:52;26.75;;;13.18;;
70132;SDS011;57495;49.922;7.966;2023-02-10T02:52:02;30.48;;;12.75;;
70132;SDS011;57495;49.922;7.966;2023-02-10T02:54:13;27.65;;;12.48;;
70132;SDS011;57495;49.922;7.966;2023-02-10T02:56:24;25.67;;;13.13;;
70132;SDS011;57495;49.922;7.966;2023-02-10T02:58:33;25.00;;;11.57;;
70132;SDS011;57495;49.922;7.966;2023-02-10T03:00:40;27.17;;;12.55;;
70132;SDS011;57495;49.922;7.966;2023-02-10T03:02:44;26.58;;;10.90;;
70132;SDS011;57495;49.922;7.966;2023-02-10T03:04:47;29.98;;;13.05;;
70132;SDS011;57495;49.922;7.966;2023-02-10T03:06:50;27.75;;;12.57;;
70132;SDS011;57495;49.922;7.966;2023-02-10T03:08:51;27.13;;;11.90;;
70132;SDS011;57495;49.922;7.966;2023-02-10T03:10:53;27.45;;;13.07;;
70132;SDS011;57495;49.922;7.966;2023-02-10T03:12:54;28.95;;;13.02;;
70132;SDS011;57495;49.922;7.966;2023-02-10T03:14:56;33.75;;;14.15;;
70132;SDS011;57495;49.922;7.966;2023-02-10T03:16:57;30.50;;;13.50;;
70132;SDS011;57495;49.922;7.966;2023-02-10T03:18:59;29.80;;;13.65;;
70132;SDS011;57495;49.922;7.966;2023-02-10T03:21:00;30.20;;;13.52;;
70132;SDS011;57495;49.922;7.966;2023-02-10T03:23:03;28.35;;;13.63;;
70132;SDS011;57495;49.922;7.966;2023-02-10T03:25:05;24.45;;;12.25;;
70132;SDS011;57495;49.922;7.966;2023-02-10T03:27:06;27.00;;;13.43;;
70132;SDS011;57495;49.922;7.966;2023-02-10T03:29:09;28.65;;;13.38;;
70132;SDS011;57495;49.922;7.966;2023-02-10T03:31:11;27.33;;;11.40;;
70132;SDS011;57495;49.922;7.966;2023-02-10T03:33:13;23.90;;;11.68;;
70132;SDS011;57495;49.922;7.966;2023-02-10T03:35:14;25.50;;;13.25;;
70132;SDS011;57495;49.922;7.966;2023-02-10T03:37:16;27.33;;;13.77;;
70132;SDS011;57495;49.922;7.966;2023-02-10T03:39:19;29.58;;;13.25;;
70132;SDS011;57495;49.922;7.966;2023-02-10T03:41:20;25.30;;;12.32;;
70132;SDS011;57495;49.922;7.966;2023-02-10T03:43:22;28.10;;;12.85;;
70132;SDS011;57495;49.922;7.966;2023-02-10T03:45:23;28.60;;;13.20;;
70132;SDS011;57495;49.922;7.966;2023-02-10T03:47:25;25.15;;;12.90;;
70132;SDS011;57495;49.922;7.966;2023-02-10T03:49:26;27.25;;;13.70;;
70132;SDS011;57495;49.922;7.966;2023-02-10T03:51:28;26.33;;;12.52;;
70132;SDS011;57495;49.922;7.966;2023-02-10T03:53:30;31.08;;;12.77;;
70132;SDS011;57495;49.922;7.966;2023-02-10T03:55:34;27.48;;;13.73;;
70132;SDS011;57495;49.922;7.966;2023-02-10T03:57:35;30.17;;;14.55;;
70132;SDS011;57495;49.922;7.966;2023-02-10T03:59:37;29.02;;;14.27;;
70132;SDS011;57495;49.922;7.966;2023-02-10T04:01:38;30.30;;;13.63;;
70132;SDS011;57495;49.922;7.966;2023-02-10T04:03:40;26.85;;;13.63;;
70132;SDS011;57495;49.922;7.966;2023-02-10T04:05:41;28.08;;;13.55;;
70132;SDS011;57495;49.922;7.966;2023-02-10T04:07:43;28.60;;;13.48;;
70132;SDS011;57495;49.922;7.966;2023-02-10T04:09:44;31.08;;;14.70;;
70132;SDS011;57495;49.922;7.966;2023-02-10T04:11:47;28.95;;;12.85;;
70132;SDS011;57495;49.922;7.966;2023-02-10T04:13:49;28.77;;;13.65;;
70132;SDS011;57495;49.922;7.966;2023-02-10T04:15:59;27.75;;;13.40;;
70132;SDS011;57495;49.922;7.966;2023-02-10T04:18:01;29.70;;;13.43;;
70132;SDS011;57495;49.922;7.966;2023-02-10T04:20:02;27.67;;;13.55;;
70132;SDS011;57495;49.922;7.966;2023-02-10T04:22:04;27.60;;;12.75;;
70132;SDS011;57495;49.922;7.966;2023-02-10T04:24:06;27.83;;;13.90;;
70132;SDS011;57495;49.922;7.966;2023-02-10T04:26:07;26.45;;;13.20;;
70132;SDS011;57495;49.922;7.966;2023-02-10T04:28:11;32.80;;;14.52;;
70132;SDS011;57495;49.922;7.966;2023-02-10T04:30:12;28.02;;;13.02;;
70132;SDS011;57495;49.922;7.966;2023-02-10T04:32:14;25.20;;;12.63;;
70132;SDS011;57495;49.922;7.966;2023-02-10T04:34:15;26.52;;;12.90;;
70132;SDS011;57495;49.922;7.966;2023-02-10T04:36:17;29.85;;;13.80;;
70132;SDS011;57495;49.922;7.966;2023-02-10T04:38:18;27.83;;;14.18;;
70132;SDS011;57495;49.922;7.966;2023-02-10T04:40:20;30.38;;;13.60;;
70132;SDS011;57495;49.922;7.966;2023-02-10T04:42:22;29.17;;;13.30;;
70132;SDS011;57495;49.922;7.966;2023-02-10T04:44:31;23.48;;;10.93;;
70132;SDS011;57495;49.922;7.966;2023-02-10T04:46:32;24.13;;;12.13;;
70132;SDS011;57495;49.922;7.966;2023-02-10T04:48:33;28.73;;;13.15;;
70132;SDS011;57495;49.922;7.966;2023-02-10T04:50:35;30.80;;;14.27;;
70132;SDS011;57495;49.922;7.966;2023-02-10T04:52:38;24.70;;;12.70;;
70132;SDS011;57495;49.922;7.966;2023-02-10T04:54:39;28.25;;;14.07;;
70132;SDS011;57495;49.922;7.966;2023-02-10T04:56:40;26.58;;;12.43;;
70132;SDS011;57495;49.922;7.966;2023-02-10T04:58:42;29.67;;;13.15;;
70132;SDS011;57495;49.922;7.966;2023-02-10T05:00:46;28.75;;;13.27;;
70132;SDS011;57495;49.922;7.966;2023-02-10T05:02:47;25.40;;;12.43;;
70132;SDS011;57495;49.922;7.966;2023-02-10T05:04:49;26.63;;;12.45;;
70132;SDS011;57495;49.922;7.966;2023-02-10T05:06:50;28.77;;;13.73;;
70132;SDS011;57495;49.922;7.966;2023-02-10T05:08:51;26.20;;;13.27;;
70132;SDS011;57495;49.922;7.966;2023-02-10T05:10:53;28.30;;;13.30;;
70132;SDS011;57495;49.922;7.966;2023-02-10T05:12:54;27.52;;;12.98;;
70132;SDS011;57495;49.922;7.966;2023-02-10T05:14:56;28.27;;;12.50;;
70132;SDS011;57495;49.922;7.966;2023-02-10T05:16:59;26.83;;;11.48;;
70132;SDS011;57495;49.922;7.966;2023-02-10T05:19:00;26.05;;;12.82;;
70132;SDS011;57495;49.922;7.966;2023-02-10T05:21:01;28.30;;;12.75;;
70132;SDS011;57495;49.922;7.966;2023-02-10T05:23:04;32.90;;;12.93;;
70132;SDS011;57495;49.922;7.966;2023-02-10T05:25:06;27.35;;;13.35;;
70132;SDS011;57495;49.922;7.966;2023-02-10T05:27:08;31.60;;;13.63;;
70132;SDS011;57495;49.922;7.966;2023-02-10T05:29:09;27.17;;;14.10;;
70132;SDS011;57495;49.922;7.966;2023-02-10T05:31:11;27.08;;;12.75;;
70132;SDS011;57495;49.922;7.966;2023-02-10T05:33:14;27.85;;;14.00;;
70132;SDS011;57495;49.922;7.966;2023-02-10T05:35:15;29.63;;;13.20;;
70132;SDS011;57495;49.922;7.966;2023-02-10T05:37:17;27.23;;;13.10;;
70132;SDS011;57495;49.922;7.966;2023-02-10T05:39:18;28.15;;;13.40;;
70132;SDS011;57495;49.922;7.966;2023-02-10T05:41:28;29.05;;;14.10;;
70132;SDS011;57495;49.922;7.966;2023-02-10T05:43:30;28.17;;;14.40;;
70132;SDS011;57495;49.922;7.966;2023-02-10T05:45:31;27.33;;;12.18;;
70132;SDS011;57495;49.922;7.966;2023-02-10T05:47:32;27.23;;;13.32;;
70132;SDS011;57495;49.922;7.966;2023-02-10T05:49:35;27.77;;;14.05;;
70132;SDS011;57495;49.922;7.966;2023-02-10T05:51:37;25.55;;;13.43;;
70132;SDS011;57495;49.922;7.966;2023-02-10T05:53:38;31.17;;;15.05;;
70132;SDS011;57495;49.922;7.966;2023-02-10T05:55:39;24.75;;;12.75;;
70132;SDS011;57495;49.922;7.966;2023-02-10T05:57:41;28.05;;;13.85;;
70132;SDS011;57495;49.922;7.966;2023-02-10T05:59:42;23.98;;;12.90;;
70132;SDS011;57495;49.922;7.966;2023-02-10T06:01:44;22.27;;;9.90;;
70132;SDS011;57495;49.922;7.966;2023-02-10T06:03:45;29.90;;;13.60;;
70132;SDS011;57495;49.922;7.966;2023-02-10T06:05:48;28.15;;;14.15;;
70132;SDS011;57495;49.922;7.966;2023-02-10T06:07:49;26.52;;;13.73;;
70132;SDS011;57495;49.922;7.966;2023-02-10T06:09:51;29.60;;;13.32;;
70132;SDS011;57495;49.922;7.966;2023-02-10T06:11:52;25.98;;;13.05;;
70132;SDS011;57495;49.922;7.966;2023-02-10T06:13:53;27.80;;;13.90;;
70132;SDS011;57495;49.922;7.966;2023-02-10T06:15:55;27.33;;;13.68;;
70132;SDS011;57495;49.922;7.966;2023-02-10T06:17:56;29.23;;;13.77;;
70132;SDS011;57495;49.922;7.966;2023-02-10T06:19:58;28.65;;;14.80;;
70132;SDS011;57495;49.922;7.966;2023-02-10T06:22:00;30.77;;;14.65;;
70132;SDS011;57495;49.922;7.966;2023-02-10T06:24:02;26.42;;;13.68;;
70132;SDS011;57495;49.922;7.966;2023-02-10T06:26:03;32.10;;;15.77;;
70132;SDS011;57495;49.922;7.966;2023-02-10T06:28:05;27.85;;;13.88;;
70132;SDS011;57495;49.922;7.966;2023-02-10T06:30:07;31.17;;;14.30;;
70132;SDS011;57495;49.922;7.966;2023-02-10T06:32:09;27.95;;;14.35;;
70132;SDS011;57495;49.922;7.966;2023-02-10T06:34:11;29.13;;;14.13;;
70132;SDS011;57495;49.922;7.966;2023-02-10T06:36:13;30.10;;;15.00;;
70132;SDS011;57495;49.922;7.966;2023-02-10T06:38:16;31.45;;;15.40;;
70132;SDS011;57495;49.922;7.966;2023-02-10T06:40:17;30.40;;;14.30;;
70132;SDS011;57495;49.922;7.966;2023-02-10T06:42:19;29.13;;;14.07;;
70132;SDS011;57495;49.922;7.966;2023-02-10T06:44:20;29.80;;;14.10;;
70132;SDS011;57495;49.922;7.966;2023-02-10T06:46:22;30.25;;;14.70;;
70132;SDS011;57495;49.922;7.966;2023-02-10T06:48:23;27.10;;;14.20;;
70132;SDS011;57495;49.922;7.966;2023-02-10T06:50:26;28.50;;;14.02;;
70132;SDS011;57495;49.922;7.966;2023-02-10T06:52:28;32.65;;;14.70;;
70132;SDS011;57495;49.922;7.966;2023-02-10T06:54:31;29.02;;;14.13;;
70132;SDS011;57495;49.922;7.966;2023-02-10T06:56:32;29.30;;;14.13;;
70132;SDS011;57495;49.922;7.966;2023-02-10T06:58:34;30.40;;;13.88;;
70132;SDS011;57495;49.922;7.966;2023-02-10T07:00:35;28.58;;;14.23;;
70132;SDS011;57495;49.922;7.966;2023-02-10T07:02:38;31.38;;;13.68;;
70132;SDS011;57495;49.922;7.966;2023-02-10T07:04:40;29.95;;;13.60;;
70132;SDS011;57495;49.922;7.966;2023-02-10T07:06:41;30.90;;;14.48;;
70132;SDS011;57495;49.922;7.966;2023-02-10T07:08:42;29.88;;;14.80;;
70132;SDS011;57495;49.922;7.966;2023-02-10T07:10:45;27.40;;;13.65;;
70132;SDS011;57495;49.922;7.966;2023-02-10T07:12:47;27.55;;;13.23;;
70132;SDS011;57495;49.922;7.966;2023-02-10T07:14:48;31.58;;;14.80;;
70132;SDS011;57495;49.922;7.966;2023-02-10T07:16:49;27.60;;;13.57;;
70132;SDS011;57495;49.922;7.966;2023-02-10T07:18:51;30.45;;;15.30;;
70132;SDS011;57495;49.922;7.966;2023-02-10T07:20:52;29.42;;;14.32;;
70132;SDS011;57495;49.922;7.966;2023-02-10T07:22:54;28.58;;;13.90;;
70132;SDS011;57495;49.922;7.966;2023-02-10T07:24:55;28.35;;;13.85;;
70132;SDS011;57495;49.922;7.966;2023-02-10T07:26:58;28.27;;;13.60;;
70132;SDS011;57495;49.922;7.966;2023-02-10T07:29:00;30.45;;;14.68;;
70132;SDS011;57495;49.922;7.966;2023-02-10T07:31:01;30.58;;;15.23;;
70132;SDS011;57495;49.922;7.966;2023-02-10T07:33:03;28.02;;;13.85;;
70132;SDS011;57495;49.922;7.966;2023-02-10T07:35:04;30.00;;;15.20;;
70132;SDS011;57495;49.922;7.966;2023-02-10T07:37:06;32.72;;;15.00;;
70132;SDS011;57495;49.922;7.966;2023-02-10T07:39:07;27.88;;;14.77;;
70132;SDS011;57495;49.922;7.966;2023-02-10T07:41:12;31.70;;;15.57;;
70132;SDS011;57495;49.922;7.966;2023-02-10T07:43:15;30.27;;;14.45;;
70132;SDS011;57495;49.922;7.966;2023-02-10T07:45:16;30.80;;;15.88;;
70132;SDS011;57495;49.922;7.966;2023-02-10T07:47:18;28.02;;;14.40;;
70132;SDS011;57495;49.922;7.966;2023-02-10T07:49:20;26.98;;;14.02;;
70132;SDS011;57495;49.922;7.966;2023-02-10T07:51:21;29.45;;;14.98;;
70132;SDS011;57495;49.922;7.966;2023-02-10T07:53:23;32.65;;;15.07;;
70132;SDS011;57495;49.922;7.966;2023-02-10T07:55:24;31.88;;;14.82;;
70132;SDS011;57495;49.922;7.966;2023-02-10T07:57:25;32.40;;;14.95;;
70132;SDS011;57495;49.922;7.966;2023-02-10T07:59:28;29.58;;;15.07;;
70132;SDS011;57495;49.922;7.966;2023-02-10T08:01:29;31.67;;;16.05;;
70132;SDS011;57495;49.922;7.966;2023-02-10T08:03:31;29.67;;;15.35;;
70132;SDS011;57495;49.922;7.966;2023-02-10T08:05:34;27.90;;;14.27;;
70132;SDS011;57495;49.922;7.966;2023-02-10T08:07:36;28.40;;;14.52;;
70132;SDS011;57495;49.922;7.966;2023-02-10T08:09:38;30.27;;;15.57;;
70132;SDS011;57495;49.922;7.966;2023-02-10T08:11:39;31.00;;;16.05;;
70132;SDS011;57495;49.922;7.966;2023-02-10T08:13:40;31.80;;;16.35;;
70132;SDS011;57495;49.922;7.966;2023-02-10T08:15:43;28.88;;;14.18;;
70132;SDS011;57495;49.922;7.966;2023-02-10T08:17:45;32.47;;;15.07;;
70132;SDS011;57495;49.922;7.966;2023-02-10T08:19:46;32.67;;;15.73;;
70132;SDS011;57495;49.922;7.966;2023-02-10T08:21:48;32.33;;;15.07;;
70132;SDS011;57495;49.922;7.966;2023-02-10T08:23:49;30.60;;;13.88;;
70132;SDS011;57495;49.922;7.966;2023-02-10T08:25:54;31.13;;;15.23;;
70132;SDS011;57495;49.922;7.966;2023-02-10T08:27:56;33.38;;;15.68;;
70132;SDS011;57495;49.922;7.966;2023-02-10T08:29:57;30.63;;;14.73;;
70132;SDS011;57495;49.922;7.966;2023-02-10T08:32:00;31.30;;;14.68;;
70132;SDS011;57495;49.922;7.966;2023-02-10T08:34:01;30.17;;;16.58;;
70132;SDS011;57495;49.922;7.966;2023-02-10T08:36:03;31.83;;;15.68;;
70132;SDS011;57495;49.922;7.966;2023-02-10T08:38:06;27.80;;;15.10;;
70132;SDS011;57495;49.922;7.966;2023-02-10T08:40:09;31.42;;;15.77;;
70132;SDS011;57495;49.922;7.966;2023-02-10T08:42:11;31.05;;;13.95;;
70132;SDS011;57495;49.922;7.966;2023-02-10T08:44:12;30.15;;;14.82;;
70132;SDS011;57495;49.922;7.966;2023-02-10T08:46:14;30.15;;;14.50;;
70132;SDS011;57495;49.922;7.966;2023-02-10T08:48:17;32.75;;;15.80;;
70132;SDS011;57495;49.922;7.966;2023-02-10T08:50:19;30.65;;;15.45;;
70132;SDS011;57495;49.922;7.966;2023-02-10T08:52:21;25.42;;;12.07;;
70132;SDS011;57495;49.922;7.966;2023-02-10T08:54:23;30.70;;;14.45;;
70132;SDS011;57495;49.922;7.966;2023-02-10T08:56:25;30.92;;;12.40;;
70132;SDS011;57495;49.922;7.966;2023-02-10T08:58:26;27.92;;;14.18;;
70132;SDS011;57495;49.922;7.966;2023-02-10T09:00:28;28.92;;;14.63;;
70132;SDS011;57495;49.922;7.966;2023-02-10T09:02:30;19.77;;;10.30;;
70132;SDS011;57495;49.922;7.966;2023-02-10T09:04:32;32.72;;;15.68;;
70132;SDS011;57495;49.922;7.966;2023-02-10T09:06:35;30.40;;;14.32;;
70132;SDS011;57495;49.922;7.966;2023-02-10T09:08:39;30.20;;;15.30;;
70132;SDS011;57495;49.922;7.966;2023-02-10T09:10:41;27.15;;;13.45;;
70132;SDS011;57495;49.922;7.966;2023-02-10T09:12:44;29.38;;;14.20;;
70132;SDS011;57495;49.922;7.966;2023-02-10T09:14:45;26.65;;;13.43;;
70132;SDS011;57495;49.922;7.966;2023-02-10T09:16:47;27.95;;;14.23;;
70132;SDS011;57495;49.922;7.966;2023-02-10T09:18:50;29.90;;;15.43;;
70132;SDS011;57495;49.922;7.966;2023-02-10T09:20:53;29.02;;;15.02;;
70132;SDS011;57495;49.922;7.966;2023-02-10T09:22:54;29.15;;;14.98;;
70132;SDS011;57495;49.922;7.966;2023-02-10T09:24:55;30.05;;;15.02;;
70132;SDS011;57495;49.922;7.966;2023-02-10T09:26:57;27.27;;;14.52;;
70132;SDS011;57495;49.922;7.966;2023-02-10T09:28:58;30.35;;;15.68;;
70132;SDS011;57495;49.922;7.966;2023-02-10T09:31:00;31.25;;;15.80;;
70132;SDS011;57495;49.922;7.966;2023-02-10T09:33:01;32.15;;;15.38;;
70132;SDS011;57495;49.922;7.966;2023-02-10T09:35:03;29.33;;;15.48;;
70132;SDS011;57495;49.922;7.966;2023-02-10T09:37:06;22.98;;;11.82;;
70132;SDS011;57495;49.922;7.966;2023-02-10T09:39:08;34.35;;;16.38;;
70132;SDS011;57495;49.922;7.966;2023-02-10T09:41:12;35.25;;;16.13;;
70132;SDS011;57495;49.922;7.966;2023-02-10T09:43:27;28.42;;;13.93;;
70132;SDS011;57495;49.922;7.966;2023-02-10T09:45:39;29.20;;;15.30;;
70132;SDS011;57495;49.922;7.966;2023-02-10T09:47:43;31.70;;;16.25;;
70132;SDS011;57495;49.922;7.966;2023-02-10T09:49:54;33.55;;;16.73;;
70132;SDS011;57495;49.922;7.966;2023-02-10T09:52:18;32.92;;;16.20;;
70132;SDS011;57495;49.922;7.966;2023-02-10T09:54:28;29.63;;;15.43;;
70132;SDS011;57495;49.922;7.966;2023-02-10T09:56:32;33.00;;;16.55;;
70132;SDS011;57495;49.922;7.966;2023-02-10T09:58:35;31.83;;;17.60;;
70132;SDS011;57495;49.922;7.966;2023-02-10T10:00:42;31.88;;;16.08;;
70132;SDS011;57495;49.922;7.966;2023-02-10T10:02:46;31.48;;;16.52;;
70132;SDS011;57495;49.922;7.966;2023-02-10T10:04:51;28.63;;;14.73;;
70132;SDS011;57495;49.922;7.966;2023-02-10T10:06:55;30.58;;;14.98;;
70132;SDS011;57495;49.922;7.966;2023-02-10T10:09:09;30.10;;;14.57;;
70132;SDS011;57495;49.922;7.966;2023-02-10T10:11:22;31.05;;;16.30;;
70132;SDS011;57495;49.922;7.966;2023-02-10T10:13:27;28.42;;;14.63;;
70132;SDS011;57495;49.922;7.966;2023-02-10T10:15:31;29.15;;;16.40;;
70132;SDS011;57495;49.922;7.966;2023-02-10T10:17:44;30.38;;;15.93;;
70132;SDS011;57495;49.922;7.966;2023-02-10T10:19:59;31.15;;;15.77;;
70132;SDS011;57495;49.922;7.966;2023-02-10T10:22:16;30.05;;;15.95;;
70132;SDS011;57495;49.922;7.966;2023-02-10T10:24:37;29.65;;;15.38;;
70132;SDS011;57495;49.922;7.966;2023-02-10T10:26:49;30.70;;;16.70;;
70132;SDS011;57495;49.922;7.966;2023-02-10T10:29:01;28.65;;;15.80;;
70132;SDS011;57495;49.922;7.966;2023-02-10T10:31:14;28.90;;;15.65;;
70132;SDS011;57495;49.922;7.966;2023-02-10T10:33:19;32.03;;;16.88;;
70132;SDS011;57495;49.922;7.966;2023-02-10T10:35:24;29.90;;;15.38;;
70132;SDS011;57495;49.922;7.966;2023-02-10T10:37:30;28.25;;;15.18;;
70132;SDS011;57495;49.922;7.966;2023-02-10T10:39:32;30.05;;;15.95;;
70132;SDS011;57495;49.922;7.966;2023-02-10T10:41:39;27.13;;;14.95;;
70132;SDS011;57495;49.922;7.966;2023-02-10T10:43:43;27.55;;;14.45;;
70132;SDS011;57495;49.922;7.966;2023-02-10T10:45:47;32.15;;;16.63;;
70132;SDS011;57495;49.922;7.966;2023-02-10T10:47:52;31.58;;;17.48;;
70132;SDS011;57495;49.922;7.966;2023-02-10T10:49:57;28.58;;;15.98;;
70132;SDS011;57495;49.922;7.966;2023-02-10T10:51:59;29.05;;;15.23;;
70132;SDS011;57495;49.922;7.966;2023-02-10T10:54:01;33.08;;;16.50;;
70132;SDS011;57495;49.922;7.966;2023-02-10T10:56:06;30.80;;;16.70;;
70132;SDS011;57495;49.922;7.966;2023-02-10T10:58:17;28.17;;;15.65;;
70132;SDS011;57495;49.922;7.966;2023-02-10T11:00:26;30.13;;;15.73;;
70132;SDS011;57495;49.922;7.966;2023-02-10T11:02:29;28.60;;;15.32;;
70132;SDS011;57495;49.922;7.966;2023-02-10T11:04:30;26.98;;;15.60;;
70132;SDS011;57495;49.922;7.966;2023-02-10T11:06:34;27.80;;;15.20;;
70132;SDS011;57495;49.922;7.966;2023-02-10T11:08:37;26.73;;;15.48;;
70132;SDS011;57495;49.922;7.966;2023-02-10T11:10:46;27.65;;;16.33;;
70132;SDS011;57495;49.922;7.966;2023-02-10T11:12:50;27.58;;;15.68;;
70132;SDS011;57495;49.922;7.966;2023-02-10T11:14:52;26.42;;;15.23;;
70132;SDS011;57495;49.922;7.966;2023-02-10T11:16:56;30.00;;;16.08;;
70132;SDS011;57495;49.922;7.966;2023-02-10T11:19:01;29.67;;;16.73;;
70132;SDS011;57495;49.922;7.966;2023-02-10T11:21:04;27.58;;;14.60;;
70132;SDS011;57495;49.922;7.966;2023-02-10T11:23:12;28.63;;;16.75;;
70132;SDS011;57495;49.922;7.966;2023-02-10T11:25:23;26.58;;;14.88;;
70132;SDS011;57495;49.922;7.966;2023-02-10T11:27:27;28.63;;;16.63;;
70132;SDS011;57495;49.922;7.966;2023-02-10T11:29:32;27.17;;;15.70;;
70132;SDS011;57495;49.922;7.966;2023-02-10T11:31:35;29.27;;;15.82;;
70132;SDS011;57495;49.922;7.966;2023-02-10T11:33:37;26.75;;;15.15;;
70132;SDS011;57495;49.922;7.966;2023-02-10T11:35:38;27.65;;;14.70;;
70132;SDS011;57495;49.922;7.966;2023-02-10T11:37:51;27.05;;;14.65;;
70132;SDS011;57495;49.922;7.966;2023-02-10T11:39:56;28.63;;;15.05;;
70132;SDS011;57495;49.922;7.966;2023-02-10T11:42:06;27.42;;;14.52;;
70132;SDS011;57495;49.922;7.966;2023-02-10T11:44:14;26.35;;;14.65;;
70132;SDS011;57495;49.922;7.966;2023-02-10T11:46:27;25.35;;;14.65;;
70132;SDS011;57495;49.922;7.966;2023-02-10T11:48:30;25.20;;;14.88;;
70132;SDS011;57495;49.922;7.966;2023-02-10T11:50:33;28.10;;;14.68;;
70132;SDS011;57495;49.922;7.966;2023-02-10T11:52:37;25.10;;;14.15;;
70132;SDS011;57495;49.922;7.966;2023-02-10T11:54:38;23.75;;;14.60;;
70132;SDS011;57495;49.922;7.966;2023-02-10T11:56:43;24.98;;;14.43;;
70132;SDS011;57495;49.922;7.966;2023-02-10T11:59:09;24.33;;;14.02;;
70132;SDS011;57495;49.922;7.966;2023-02-10T12:01:23;27.13;;;14.85;;
70132;SDS011;57495;49.922;7.966;2023-02-10T12:03:42;27.02;;;15.43;;
70132;SDS011;57495;49.922;7.966;2023-02-10T12:05:54;26.35;;;15.70;;